sensor_id;sensor_type;location;lat;lon;timestamp;pressure;altitude;pressure_sealevel;temperature;humidity
31357;BME280;60001;48.404;11.738;2023-06-14T00:00:00;95829.81;;;18.52;38.88
31357;BME280;60001;48.404;11.738;2023-06-14T00:01:34;95829.97;;;18.47;38.70
31357;BME280;60001;48.404;11.738;2023-06-14T00:03:06;95836.41;;;18.46;39.34
31357;BME280;60001;48.404;11.738;2023-06-14T00:04:38;95835.94;;;18.44;39.55
31357;BME280;60001;48.404;11.738;2023-06-14T00:06:12;95839.22;;;18.41;39.84
31357;BME280;60001;48.404;11.738;2023-06-14T00:07:45;95838.13;;;18.42;40.75
31357;BME280;60001;48.404;11.738;2023-06-14T00:09:18;95842.69;;;18.41;41.13
31357;BME280;60001;48.404;11.738;2023-06-14T00:10:50;95840.34;;;18.48;40.77
31357;BME280;60001;48.404;11.738;2023-06-14T00:12:24;95843.19;;;18.52;40.87
31357;BME280;60001;48.404;11.738;2023-06-14T00:13:54;95841.31;;;18.44;40.80
31357;BME280;60001;48.404;11.738;2023-06-14T00:15:26;95842.56;;;18.46;40.12
31357;BME280;60001;48.404;11.738;2023-06-14T00:16:58;95841.59;;;18.33;40.02
31357;BME280;60001;48.404;11.738;2023-06-14T00:18:29;95846.94;;;18.42;39.58
31357;BME280;60001;48.404;11.738;2023-06-14T00:20:03;95817.38;;;18.30;39.71
31357;BME280;60001;48.404;11.738;2023-06-14T00:21:35;95840.34;;;18.31;40.02
31357;BME280;60001;48.404;11.738;2023-06-14T00:23:08;95835.59;;;18.28;41.08
31357;BME280;60001;48.404;11.738;2023-06-14T00:24:40;95834.97;;;18.22;40.99
31357;BME280;60001;48.404;11.738;2023-06-14T00:26:10;95839.22;;;18.32;40.91
31357;BME280;60001;48.404;11.738;2023-06-14T00:27:42;95834.66;;;18.32;41.18
31357;BME280;60001;48.404;11.738;2023-06-14T00:29:13;95834.81;;;18.27;41.89
31357;BME280;60001;48.404;11.738;2023-06-14T00:30:45;95822.34;;;18.14;41.41
31357;BME280;60001;48.404;11.738;2023-06-14T00:32:18;95835.91;;;18.26;41.36
31357;BME280;60001;48.404;11.738;2023-06-14T00:33:49;95835.25;;;18.21;41.65
31357;BME280;60001;48.404;11.738;2023-06-14T00:35:20;95827.88;;;18.18;40.94
31357;BME280;60001;48.404;11.738;2023-06-14T00:36:51;95833.69;;;18.20;40.84
31357;BME280;60001;48.404;11.738;2023-06-14T00:38:24;95828.19;;;18.16;41.39
31357;BME280;60001;48.404;11.738;2023-06-14T00:39:56;95832.44;;;18.17;41.12
31357;BME280;60001;48.404;11.738;2023-06-14T00:41:27;95830.53;;;18.09;41.20
31357;BME280;60001;48.404;11.738;2023-06-14T00:42:58;95823.00;;;18.11;41.59
31357;BME280;60001;48.404;11.738;2023-06-14T00:44:29;95826.44;;;18.12;41.76
31357;BME280;60001;48.404;11.738;2023-06-14T00:46:01;95791.97;;;17.93;41.40
31357;BME280;60001;48.404;11.738;2023-06-14T00:47:35;95829.75;;;18.08;41.51
31357;BME280;60001;48.404;11.738;2023-06-14T00:49:08;95832.81;;;17.93;42.45
31357;BME280;60001;48.404;11.738;2023-06-14T00:50:40;95831.88;;;17.80;42.19
31357;BME280;60001;48.404;11.738;2023-06-14T00:52:12;95807.03;;;17.49;42.75
31357;BME280;60001;48.404;11.738;2023-06-14T00:53:46;95823.28;;;17.61;42.77
31357;BME280;60001;48.404;11.738;2023-06-14T00:55:18;95807.03;;;17.49;43.52
31357;BME280;60001;48.404;11.738;2023-06-14T00:56:50;95828.06;;;17.50;43.28
31357;BME280;60001;48.404;11.738;2023-06-14T00:58:22;95831.41;;;17.56;43.98
31357;BME280;60001;48.404;11.738;2023-06-14T00:59:54;95823.63;;;17.68;43.24
31357;BME280;60001;48.404;11.738;2023-06-14T01:01:26;95827.75;;;17.74;42.85
31357;BME280;60001;48.404;11.738;2023-06-14T01:02:59;95828.16;;;17.68;42.77
31357;BME280;60001;48.404;11.738;2023-06-14T01:04:31;95827.66;;;17.66;43.00
31357;BME280;60001;48.404;11.738;2023-06-14T01:06:15;95819.13;;;17.46;43.00
31357;BME280;60001;48.404;11.738;2023-06-14T01:08:09;95826.63;;;17.44;43.64
31357;BME280;60001;48.404;11.738;2023-06-14T01:09:58;95816.34;;;17.29;44.34
31357;BME280;60001;48.404;11.738;2023-06-14T01:11:45;95820.06;;;17.19;44.73
31357;BME280;60001;48.404;11.738;2023-06-14T01:13:23;95812.78;;;17.34;44.61
31357;BME280;60001;48.404;11.738;2023-06-14T01:14:57;95833.84;;;17.44;43.71
31357;BME280;60001;48.404;11.738;2023-06-14T01:16:30;95831.34;;;17.39;43.67
31357;BME280;60001;48.404;11.738;2023-06-14T01:18:05;95826.13;;;17.34;44.66
31357;BME280;60001;48.404;11.738;2023-06-14T01:19:39;95825.19;;;17.38;44.45
31357;BME280;60001;48.404;11.738;2023-06-14T01:21:20;95824.72;;;17.36;43.52
31357;BME280;60001;48.404;11.738;2023-06-14T01:22:53;95826.34;;;17.46;43.77
31357;BME280;60001;48.404;11.738;2023-06-14T01:24:25;95823.97;;;17.44;42.80
31357;BME280;60001;48.404;11.738;2023-06-14T01:25:55;95821.03;;;17.54;43.75
31357;BME280;60001;48.404;11.738;2023-06-14T01:27:28;95823.53;;;17.51;43.41
31357;BME280;60001;48.404;11.738;2023-06-14T01:29:00;95813.13;;;17.41;43.35
31357;BME280;60001;48.404;11.738;2023-06-14T01:30:32;95822.50;;;17.38;43.96
31357;BME280;60001;48.404;11.738;2023-06-14T01:32:04;95822.25;;;17.48;43.30
31357;BME280;60001;48.404;11.738;2023-06-14T01:33:37;95812.66;;;17.39;43.41
31357;BME280;60001;48.404;11.738;2023-06-14T01:35:09;95819.28;;;17.50;43.67
31357;BME280;60001;48.404;11.738;2023-06-14T01:36:41;95813.94;;;17.50;44.11
31357;BME280;60001;48.404;11.738;2023-06-14T01:38:17;95809.22;;;17.47;44.07
31357;BME280;60001;48.404;11.738;2023-06-14T01:39:51;95820.38;;;17.49;43.50
31357;BME280;60001;48.404;11.738;2023-06-14T01:41:24;95820.94;;;17.37;44.37
31357;BME280;60001;48.404;11.738;2023-06-14T01:42:58;95813.00;;;17.23;44.54
31357;BME280;60001;48.404;11.738;2023-06-14T01:44:31;95824.81;;;17.31;44.09
31357;BME280;60001;48.404;11.738;2023-06-14T01:46:05;95818.66;;;17.22;45.45
31357;BME280;60001;48.404;11.738;2023-06-14T01:47:37;95819.69;;;17.35;44.53
31357;BME280;60001;48.404;11.738;2023-06-14T01:49:09;95819.88;;;17.16;44.35
31357;BME280;60001;48.404;11.738;2023-06-14T01:50:39;95812.19;;;17.14;44.90
31357;BME280;60001;48.404;11.738;2023-06-14T01:52:11;95813.88;;;17.10;45.18
31357;BME280;60001;48.404;11.738;2023-06-14T01:53:45;95818.97;;;17.20;45.32
31357;BME280;60001;48.404;11.738;2023-06-14T01:55:17;95822.59;;;17.24;44.75
31357;BME280;60001;48.404;11.738;2023-06-14T01:56:49;95799.31;;;17.16;44.49
31357;BME280;60001;48.404;11.738;2023-06-14T01:58:20;95817.09;;;17.21;44.57
31357;BME280;60001;48.404;11.738;2023-06-14T01:59:52;95813.44;;;17.17;43.96
31357;BME280;60001;48.404;11.738;2023-06-14T02:01:24;95818.50;;;17.18;44.63
31357;BME280;60001;48.404;11.738;2023-06-14T02:02:55;95811.59;;;16.95;44.62
31357;BME280;60001;48.404;11.738;2023-06-14T02:04:27;95820.16;;;17.06;44.40
31357;BME280;60001;48.404;11.738;2023-06-14T02:05:59;95817.34;;;16.88;45.44
31357;BME280;60001;48.404;11.738;2023-06-14T02:07:31;95819.47;;;17.00;45.11
31357;BME280;60001;48.404;11.738;2023-06-14T02:09:04;95818.63;;;16.91;44.99
31357;BME280;60001;48.404;11.738;2023-06-14T02:10:36;95813.16;;;16.96;45.16
31357;BME280;60001;48.404;11.738;2023-06-14T02:12:08;95816.50;;;17.02;44.97
31357;BME280;60001;48.404;11.738;2023-06-14T02:13:41;95816.75;;;16.91;45.73
31357;BME280;60001;48.404;11.738;2023-06-14T02:15:12;95812.94;;;16.84;45.51
31357;BME280;60001;48.404;11.738;2023-06-14T02:16:47;95819.22;;;16.88;45.86
31357;BME280;60001;48.404;11.738;2023-06-14T02:18:20;95823.47;;;16.89;46.12
31357;BME280;60001;48.404;11.738;2023-06-14T02:19:52;95810.56;;;16.82;45.51
31357;BME280;60001;48.404;11.738;2023-06-14T02:21:24;95815.81;;;16.96;45.42
31357;BME280;60001;48.404;11.738;2023-06-14T02:22:55;95817.22;;;16.93;45.10
31357;BME280;60001;48.404;11.738;2023-06-14T02:24:28;95813.16;;;16.96;45.54
31357;BME280;60001;48.404;11.738;2023-06-14T02:26:00;95815.53;;;16.75;44.06
31357;BME280;60001;48.404;11.738;2023-06-14T02:27:31;95810.06;;;16.80;45.50
31357;BME280;60001;48.404;11.738;2023-06-14T02:29:02;95818.88;;;16.81;45.09
31357;BME280;60001;48.404;11.738;2023-06-14T02:30:34;95812.75;;;16.66;42.70
31357;BME280;60001;48.404;11.738;2023-06-14T02:32:05;95818.09;;;16.66;43.81
31357;BME280;60001;48.404;11.738;2023-06-14T02:33:38;95804.69;;;16.71;44.13
31357;BME280;60001;48.404;11.738;2023-06-14T02:35:10;95823.88;;;16.82;44.89
31357;BME280;60001;48.404;11.738;2023-06-14T02:36:40;95820.00;;;16.88;44.84
31357;BME280;60001;48.404;11.738;2023-06-14T02:38:13;95822.31;;;16.81;41.74
31357;BME280;60001;48.404;11.738;2023-06-14T02:39:46;95823.66;;;16.70;42.69
31357;BME280;60001;48.404;11.738;2023-06-14T02:41:16;95827.59;;;16.73;42.49
31357;BME280;60001;48.404;11.738;2023-06-14T02:42:49;95804.03;;;16.52;43.09
31357;BME280;60001;48.404;11.738;2023-06-14T02:44:24;95830.88;;;16.56;41.71
31357;BME280;60001;48.404;11.738;2023-06-14T02:45:57;95830.50;;;16.49;41.59
31357;BME280;60001;48.404;11.738;2023-06-14T02:47:29;95818.94;;;16.53;41.88
31357;BME280;60001;48.404;11.738;2023-06-14T02:49:00;95829.38;;;16.63;41.61
31357;BME280;60001;48.404;11.738;2023-06-14T02:50:32;95821.28;;;16.55;41.76
31357;BME280;60001;48.404;11.738;2023-06-14T02:52:04;95823.94;;;16.55;41.19
31357;BME280;60001;48.404;11.738;2023-06-14T02:53:36;95824.56;;;16.52;41.91
31357;BME280;60001;48.404;11.738;2023-06-14T02:55:10;95825.59;;;16.42;41.88
31357;BME280;60001;48.404;11.738;2023-06-14T02:56:40;95816.06;;;16.13;42.32
31357;BME280;60001;48.404;11.738;2023-06-14T02:58:12;95822.84;;;16.20;42.78
31357;BME280;60001;48.404;11.738;2023-06-14T02:59:44;95822.06;;;16.19;42.15
31357;BME280;60001;48.404;11.738;2023-06-14T03:01:16;95817.44;;;16.11;42.57
31357;BME280;60001;48.404;11.738;2023-06-14T03:02:47;95820.19;;;16.20;43.36
31357;BME280;60001;48.404;11.738;2023-06-14T03:04:19;95819.03;;;15.84;43.28
31357;BME280;60001;48.404;11.738;2023-06-14T03:05:51;95790.44;;;15.76;43.04
31357;BME280;60001;48.404;11.738;2023-06-14T03:07:25;95831.84;;;15.96;43.21
31357;BME280;60001;48.404;11.738;2023-06-14T03:08:58;95826.44;;;15.87;43.82
31357;BME280;60001;48.404;11.738;2023-06-14T03:10:31;95824.34;;;15.98;42.96
31357;BME280;60001;48.404;11.738;2023-06-14T03:12:04;95825.66;;;16.01;43.14
31357;BME280;60001;48.404;11.738;2023-06-14T03:13:36;95812.13;;;15.97;43.19
31357;BME280;60001;48.404;11.738;2023-06-14T03:15:09;95821.09;;;16.15;42.79
31357;BME280;60001;48.404;11.738;2023-06-14T03:16:43;95828.56;;;16.13;42.77
31357;BME280;60001;48.404;11.738;2023-06-14T03:18:15;95827.38;;;16.19;43.35
31357;BME280;60001;48.404;11.738;2023-06-14T03:19:47;95820.56;;;16.27;43.51
31357;BME280;60001;48.404;11.738;2023-06-14T03:21:19;95832.53;;;16.29;42.70
31357;BME280;60001;48.404;11.738;2023-06-14T03:22:51;95826.19;;;16.25;42.64
31357;BME280;60001;48.404;11.738;2023-06-14T03:24:24;95826.19;;;16.25;42.25
31357;BME280;60001;48.404;11.738;2023-06-14T03:26:00;95824.31;;;16.26;42.72
31357;BME280;60001;48.404;11.738;2023-06-14T03:27:32;95819.78;;;16.12;42.73
31357;BME280;60001;48.404;11.738;2023-06-14T03:29:02;95804.31;;;16.14;42.63
31357;BME280;60001;48.404;11.738;2023-06-14T03:30:34;95835.97;;;16.30;42.62
31357;BME280;60001;48.404;11.738;2023-06-14T03:32:07;95828.69;;;16.22;42.38
31357;BME280;60001;48.404;11.738;2023-06-14T03:33:39;95834.00;;;16.22;42.53
31357;BME280;60001;48.404;11.738;2023-06-14T03:35:11;95838.56;;;16.21;43.19
31357;BME280;60001;48.404;11.738;2023-06-14T03:36:47;95834.00;;;16.22;42.91
31357;BME280;60001;48.404;11.738;2023-06-14T03:38:19;95836.16;;;16.20;42.17
31357;BME280;60001;48.404;11.738;2023-06-14T03:39:54;95838.44;;;16.26;42.29
31357;BME280;60001;48.404;11.738;2023-06-14T03:41:26;95848.56;;;16.38;42.25
31357;BME280;60001;48.404;11.738;2023-06-14T03:42:58;95843.03;;;16.48;42.68
31357;BME280;60001;48.404;11.738;2023-06-14T03:44:30;95845.09;;;16.51;41.80
31357;BME280;60001;48.404;11.738;2023-06-14T03:46:01;95854.47;;;16.62;42.41
31357;BME280;60001;48.404;11.738;2023-06-14T03:47:33;95845.78;;;16.57;42.08
31357;BME280;60001;48.404;11.738;2023-06-14T03:49:05;95846.47;;;16.62;42.01
31357;BME280;60001;48.404;11.738;2023-06-14T03:50:36;95856.44;;;16.70;41.46
31357;BME280;60001;48.404;11.738;2023-06-14T03:52:08;95854.75;;;16.61;42.64
31357;BME280;60001;48.404;11.738;2023-06-14T03:53:40;95840.66;;;16.47;43.18
31357;BME280;60001;48.404;11.738;2023-06-14T03:55:12;95853.47;;;16.72;42.53
31357;BME280;60001;48.404;11.738;2023-06-14T03:56:46;95859.84;;;16.85;42.18
31357;BME280;60001;48.404;11.738;2023-06-14T03:58:17;95859.47;;;16.78;41.76
31357;BME280;60001;48.404;11.738;2023-06-14T03:59:49;95861.53;;;16.67;42.59
31357;BME280;60001;48.404;11.738;2023-06-14T04:01:20;95862.72;;;16.75;41.79
31357;BME280;60001;48.404;11.738;2023-06-14T04:02:59;95859.66;;;16.67;42.48
31357;BME280;60001;48.404;11.738;2023-06-14T04:04:31;95863.50;;;16.75;43.24
31357;BME280;60001;48.404;11.738;2023-06-14T04:06:04;95864.28;;;16.76;43.03
31357;BME280;60001;48.404;11.738;2023-06-14T04:07:36;95865.66;;;16.87;42.39
31357;BME280;60001;48.404;11.738;2023-06-14T04:09:10;95873.44;;;16.97;41.85
31357;BME280;60001;48.404;11.738;2023-06-14T04:10:41;95868.63;;;16.85;42.20
31357;BME280;60001;48.404;11.738;2023-06-14T04:12:14;95868.00;;;16.88;41.54
31357;BME280;60001;48.404;11.738;2023-06-14T04:13:46;95875.72;;;16.90;41.55
31357;BME280;60001;48.404;11.738;2023-06-14T04:15:18;95868.00;;;16.88;41.53
31357;BME280;60001;48.404;11.738;2023-06-14T04:16:50;95860.44;;;16.82;42.00
31357;BME280;60001;48.404;11.738;2023-06-14T04:18:22;95875.13;;;16.93;41.76
31357;BME280;60001;48.404;11.738;2023-06-14T04:19:54;95875.91;;;16.93;41.78
31357;BME280;60001;48.404;11.738;2023-06-14T04:21:25;95884.09;;;16.97;42.20
31357;BME280;60001;48.404;11.738;2023-06-14T04:23:11;95861.78;;;16.70;42.24
31357;BME280;60001;48.404;11.738;2023-06-14T04:24:42;95889.91;;;16.99;42.45
31357;BME280;60001;48.404;11.738;2023-06-14T04:26:15;95887.50;;;16.75;42.34
31357;BME280;60001;48.404;11.738;2023-06-14T04:27:49;95889.59;;;16.64;42.28
31357;BME280;60001;48.404;11.738;2023-06-14T04:29:20;95895.34;;;16.71;41.93
31357;BME280;60001;48.404;11.738;2023-06-14T04:30:54;95877.19;;;16.46;42.86
31357;BME280;60001;48.404;11.738;2023-06-14T04:32:26;95883.88;;;16.71;42.99
31357;BME280;60001;48.404;11.738;2023-06-14T04:33:59;95889.75;;;16.82;42.89
31357;BME280;60001;48.404;11.738;2023-06-14T04:35:31;95895.47;;;16.89;42.07
31357;BME280;60001;48.404;11.738;2023-06-14T04:37:06;95894.91;;;16.78;42.13
31357;BME280;60001;48.404;11.738;2023-06-14T04:38:38;95895.09;;;16.82;42.01
31357;BME280;60001;48.404;11.738;2023-06-14T04:40:10;95900.06;;;16.75;42.48
31357;BME280;60001;48.404;11.738;2023-06-14T04:41:42;95899.34;;;16.83;42.51
31357;BME280;60001;48.404;11.738;2023-06-14T04:43:16;95901.47;;;16.94;42.08
31357;BME280;60001;48.404;11.738;2023-06-14T04:44:48;95909.69;;;16.98;42.15
31357;BME280;60001;48.404;11.738;2023-06-14T04:46:20;95900.53;;;16.90;42.44
31357;BME280;60001;48.404;11.738;2023-06-14T04:47:52;95907.00;;;16.98;42.39
31357;BME280;60001;48.404;11.738;2023-06-14T04:49:27;95898.34;;;16.92;42.07
31357;BME280;60001;48.404;11.738;2023-06-14T04:51:01;95895.56;;;16.97;42.05
31357;BME280;60001;48.404;11.738;2023-06-14T04:52:34;95899.13;;;16.93;43.46
31357;BME280;60001;48.404;11.738;2023-06-14T04:54:06;95884.22;;;16.92;43.11
31357;BME280;60001;48.404;11.738;2023-06-14T04:55:40;95906.88;;;17.03;42.49
31357;BME280;60001;48.404;11.738;2023-06-14T04:57:15;95912.00;;;17.13;41.70
31357;BME280;60001;48.404;11.738;2023-06-14T04:58:49;95914.41;;;17.23;42.38
31357;BME280;60001;48.404;11.738;2023-06-14T05:00:21;95918.38;;;17.26;42.10
31357;BME280;60001;48.404;11.738;2023-06-14T05:01:53;95918.84;;;17.28;42.03
31357;BME280;60001;48.404;11.738;2023-06-14T05:03:27;95914.28;;;17.29;42.04
31357;BME280;60001;48.404;11.738;2023-06-14T05:05:00;95907.19;;;17.24;41.69
31357;BME280;60001;48.404;11.738;2023-06-14T05:06:32;95908.28;;;17.23;41.68
31357;BME280;60001;48.404;11.738;2023-06-14T05:08:04;95919.63;;;17.29;40.90
31357;BME280;60001;48.404;11.738;2023-06-14T05:09:36;95912.47;;;17.38;41.74
31357;BME280;60001;48.404;11.738;2023-06-14T05:11:08;95914.53;;;17.41;41.56
31357;BME280;60001;48.404;11.738;2023-06-14T05:12:39;95919.53;;;17.34;41.40
31357;BME280;60001;48.404;11.738;2023-06-14T05:14:12;95919.16;;;17.49;41.88
31357;BME280;60001;48.404;11.738;2023-06-14T05:15:44;95911.59;;;17.51;41.97
31357;BME280;60001;48.404;11.738;2023-06-14T05:17:16;95919.50;;;17.56;41.87
31357;BME280;60001;48.404;11.738;2023-06-14T05:18:48;95917.94;;;17.55;41.94
31357;BME280;60001;48.404;11.738;2023-06-14T05:20:21;95917.44;;;17.53;42.61
31357;BME280;60001;48.404;11.738;2023-06-14T05:21:55;95924.06;;;17.56;41.05
31357;BME280;60001;48.404;11.738;2023-06-14T05:23:26;95922.97;;;17.57;41.35
31357;BME280;60001;48.404;11.738;2023-06-14T05:24:58;95926.06;;;17.50;40.77
31357;BME280;60001;48.404;11.738;2023-06-14T05:26:30;95923.00;;;17.65;41.47
31357;BME280;60001;48.404;11.738;2023-06-14T05:28:05;95933.78;;;17.74;40.81
31357;BME280;60001;48.404;11.738;2023-06-14T05:29:38;95917.66;;;17.65;42.40
31357;BME280;60001;48.404;11.738;2023-06-14T05:31:10;95917.97;;;17.64;40.53
31357;BME280;60001;48.404;11.738;2023-06-14T05:32:42;95941.41;;;17.89;41.08
31357;BME280;60001;48.404;11.738;2023-06-14T05:34:13;95933.84;;;17.91;39.96
31357;BME280;60001;48.404;11.738;2023-06-14T05:35:45;95936.38;;;17.88;40.48
31357;BME280;60001;48.404;11.738;2023-06-14T05:37:17;95946.78;;;17.98;40.29
31357;BME280;60001;48.404;11.738;2023-06-14T05:38:49;95945.09;;;18.02;40.88
31357;BME280;60001;48.404;11.738;2023-06-14T05:40:27;95944.56;;;18.00;40.98
31357;BME280;60001;48.404;11.738;2023-06-14T05:41:59;95937.06;;;18.02;40.25
31357;BME280;60001;48.404;11.738;2023-06-14T05:43:31;95936.91;;;18.07;41.31
31357;BME280;60001;48.404;11.738;2023-06-14T05:45:06;95951.72;;;18.13;42.04
31357;BME280;60001;48.404;11.738;2023-06-14T05:46:37;95953.47;;;18.18;40.08
31357;BME280;60001;48.404;11.738;2023-06-14T05:48:10;95948.88;;;18.10;39.88
31357;BME280;60001;48.404;11.738;2023-06-14T05:49:42;95944.78;;;18.12;39.99
31357;BME280;60001;48.404;11.738;2023-06-14T05:51:13;95948.13;;;18.18;40.04
31357;BME280;60001;48.404;11.738;2023-06-14T05:52:49;95939.00;;;18.19;40.12
31357;BME280;60001;48.404;11.738;2023-06-14T05:54:20;95952.56;;;18.22;40.63
31357;BME280;60001;48.404;11.738;2023-06-14T05:55:52;95950.28;;;18.07;40.01
31357;BME280;60001;48.404;11.738;2023-06-14T05:57:27;95952.16;;;18.06;40.18
31357;BME280;60001;48.404;11.738;2023-06-14T05:58:58;95923.06;;;17.96;40.26
31357;BME280;60001;48.404;11.738;2023-06-14T06:00:31;95943.53;;;18.10;41.03
31357;BME280;60001;48.404;11.738;2023-06-14T06:02:03;95944.66;;;18.17;41.25
31357;BME280;60001;48.404;11.738;2023-06-14T06:03:35;95944.63;;;18.08;40.74
31357;BME280;60001;48.404;11.738;2023-06-14T06:05:07;95948.69;;;18.06;41.47
31357;BME280;60001;48.404;11.738;2023-06-14T06:06:40;95939.31;;;18.17;40.67
31357;BME280;60001;48.404;11.738;2023-06-14T06:08:11;95945.59;;;18.13;41.17
31357;BME280;60001;48.404;11.738;2023-06-14T06:09:43;95949.38;;;18.20;41.38
31357;BME280;60001;48.404;11.738;2023-06-14T06:11:15;95953.03;;;18.24;41.44
31357;BME280;60001;48.404;11.738;2023-06-14T06:12:47;95945.50;;;18.35;42.35
31357;BME280;60001;48.404;11.738;2023-06-14T06:14:19;95948.69;;;18.37;42.49
31357;BME280;60001;48.404;11.738;2023-06-14T06:15:52;95952.19;;;18.55;41.40
31357;BME280;60001;48.404;11.738;2023-06-14T06:17:24;95896.28;;;18.27;41.00
31357;BME280;60001;48.404;11.738;2023-06-14T06:18:56;95955.38;;;18.66;42.25
31357;BME280;60001;48.404;11.738;2023-06-14T06:20:29;95950.06;;;18.74;41.58
31357;BME280;60001;48.404;11.738;2023-06-14T06:22:02;95949.91;;;18.79;41.94
31357;BME280;60001;48.404;11.738;2023-06-14T06:23:35;95946.78;;;18.86;40.84
31357;BME280;60001;48.404;11.738;2023-06-14T06:25:07;95955.59;;;18.86;40.57
31357;BME280;60001;48.404;11.738;2023-06-14T06:26:40;95956.84;;;18.98;40.83
31357;BME280;60001;48.404;11.738;2023-06-14T06:28:11;95962.97;;;18.98;40.28
31357;BME280;60001;48.404;11.738;2023-06-14T06:29:43;95955.13;;;18.93;40.34
31357;BME280;60001;48.404;11.738;2023-06-14T06:31:16;95959.22;;;19.08;39.96
31357;BME280;60001;48.404;11.738;2023-06-14T06:32:48;95962.84;;;19.12;39.93
31357;BME280;60001;48.404;11.738;2023-06-14T06:34:21;95962.22;;;19.15;40.46
31357;BME280;60001;48.404;11.738;2023-06-14T06:35:52;95959.72;;;19.27;40.29
31357;BME280;60001;48.404;11.738;2023-06-14T06:37:24;95967.41;;;19.37;40.06
31357;BME280;60001;48.404;11.738;2023-06-14T06:38:56;95974.66;;;19.45;39.77
31357;BME280;60001;48.404;11.738;2023-06-14T06:40:27;95970.56;;;19.48;39.52
31357;BME280;60001;48.404;11.738;2023-06-14T06:41:59;95976.53;;;19.54;39.22
31357;BME280;60001;48.404;11.738;2023-06-14T06:43:31;95966.94;;;19.35;39.03
31357;BME280;60001;48.404;11.738;2023-06-14T06:45:03;95966.81;;;19.40;39.22
31357;BME280;60001;48.404;11.738;2023-06-14T06:46:37;95968.38;;;19.50;39.77
31357;BME280;60001;48.404;11.738;2023-06-14T06:48:10;95973.13;;;19.62;40.20
31357;BME280;60001;48.404;11.738;2023-06-14T06:49:42;95975.63;;;19.76;40.46
31357;BME280;60001;48.404;11.738;2023-06-14T06:51:14;95977.00;;;19.90;40.40
31357;BME280;60001;48.404;11.738;2023-06-14T06:52:46;95961.53;;;20.05;39.21
31357;BME280;60001;48.404;11.738;2023-06-14T06:54:17;95972.66;;;20.15;38.88
31357;BME280;60001;48.404;11.738;2023-06-14T06:55:49;95978.41;;;19.96;38.97
31357;BME280;60001;48.404;11.738;2023-06-14T06:57:21;95973.09;;;19.70;39.50
31357;BME280;60001;48.404;11.738;2023-06-14T06:58:53;95973.09;;;19.70;41.16
31357;BME280;60001;48.404;11.738;2023-06-14T07:00:25;95975.00;;;19.70;39.73
31357;BME280;60001;48.404;11.738;2023-06-14T07:01:59;95986.16;;;19.72;40.04
31357;BME280;60001;48.404;11.738;2023-06-14T07:03:30;95978.31;;;19.76;39.51
31357;BME280;60001;48.404;11.738;2023-06-14T07:05:02;95983.94;;;19.91;39.08
31357;BME280;60001;48.404;11.738;2023-06-14T07:06:34;95972.47;;;19.82;39.19
31357;BME280;60001;48.404;11.738;2023-06-14T07:08:06;95971.44;;;20.04;39.66
31357;BME280;60001;48.404;11.738;2023-06-14T07:09:38;95962.69;;;19.60;39.39
31357;BME280;60001;48.404;11.738;2023-06-14T07:11:11;95976.81;;;19.95;39.27
31357;BME280;60001;48.404;11.738;2023-06-14T07:12:42;95986.22;;;20.19;39.30
31357;BME280;60001;48.404;11.738;2023-06-14T07:14:14;95979.03;;;20.49;39.02
31357;BME280;60001;48.404;11.738;2023-06-14T07:15:46;95987.09;;;20.49;37.46
31357;BME280;60001;48.404;11.738;2023-06-14T07:17:19;95986.75;;;20.50;37.78
31357;BME280;60001;48.404;11.738;2023-06-14T07:18:51;95991.66;;;20.40;37.97
31357;BME280;60001;48.404;11.738;2023-06-14T07:20:23;95985.94;;;20.59;37.75
31357;BME280;60001;48.404;11.738;2023-06-14T07:21:55;95991.59;;;20.66;37.79
31357;BME280;60001;48.404;11.738;2023-06-14T07:23:27;95981.88;;;20.82;37.70
31357;BME280;60001;48.404;11.738;2023-06-14T07:24:58;95988.06;;;21.03;37.75
31357;BME280;60001;48.404;11.738;2023-06-14T07:26:30;95994.63;;;20.85;36.95
31357;BME280;60001;48.404;11.738;2023-06-14T07:28:02;95987.88;;;20.79;36.33
31357;BME280;60001;48.404;11.738;2023-06-14T07:29:34;95995.28;;;20.82;37.31
31357;BME280;60001;48.404;11.738;2023-06-14T07:31:06;95995.31;;;21.03;36.52
31357;BME280;60001;48.404;11.738;2023-06-14T07:32:39;95989.88;;;20.91;36.39
31357;BME280;60001;48.404;11.738;2023-06-14T07:34:10;96002.38;;;20.87;37.05
31357;BME280;60001;48.404;11.738;2023-06-14T07:35:42;95996.53;;;20.85;36.17
31357;BME280;60001;48.404;11.738;2023-06-14T07:37:14;96001.75;;;21.11;37.34
31357;BME280;60001;48.404;11.738;2023-06-14T07:38:46;95999.72;;;21.07;36.57
31357;BME280;60001;48.404;11.738;2023-06-14T07:40:18;95999.09;;;21.31;36.48
31357;BME280;60001;48.404;11.738;2023-06-14T07:41:50;96005.19;;;21.41;36.96
31357;BME280;60001;48.404;11.738;2023-06-14T07:43:22;96007.22;;;21.65;36.73
31357;BME280;60001;48.404;11.738;2023-06-14T07:44:53;95998.53;;;21.80;36.10
31357;BME280;60001;48.404;11.738;2023-06-14T07:46:25;95991.75;;;21.61;36.22
31357;BME280;60001;48.404;11.738;2023-06-14T07:47:58;96014.34;;;21.60;38.00
31357;BME280;60001;48.404;11.738;2023-06-14T07:49:30;96017.63;;;21.66;37.52
31357;BME280;60001;48.404;11.738;2023-06-14T07:51:02;96003.81;;;21.88;36.51
31357;BME280;60001;48.404;11.738;2023-06-14T07:52:34;96004.72;;;22.13;35.51
31357;BME280;60001;48.404;11.738;2023-06-14T07:54:06;96006.97;;;22.11;35.45
31357;BME280;60001;48.404;11.738;2023-06-14T07:55:38;96009.09;;;22.18;35.29
31357;BME280;60001;48.404;11.738;2023-06-14T07:57:13;96007.25;;;22.55;34.97
31357;BME280;60001;48.404;11.738;2023-06-14T07:58:45;95987.19;;;22.65;34.85
31357;BME280;60001;48.404;11.738;2023-06-14T08:00:18;96010.84;;;22.84;33.39
31357;BME280;60001;48.404;11.738;2023-06-14T08:01:50;96009.06;;;23.00;34.74
31357;BME280;60001;48.404;11.738;2023-06-14T08:03:23;95987.44;;;22.96;34.53